createdAt,value
2019-03-11T00:01:20.138Z,4.29
2019-03-11T00:06:14.116Z,4.43
2019-03-11T00:11:07.980Z,4.49
2019-03-11T00:16:01.871Z,4.65
2019-03-11T00:20:55.807Z,4.84
2019-03-11T00:25:49.686Z,4.88
2019-03-11T00:30:43.657Z,5.01
2019-03-11T00:35:37.503Z,5.17
2019-03-11T00:40:31.371Z,5.17
2019-03-11T00:45:25.221Z,4.90
2019-03-11T00:50:19.092Z,4.45
2019-03-11T00:55:13.058Z,4.15
2019-03-11T01:00:31.412Z,3.90
2019-03-11T01:05:25.279Z,3.79
2019-03-11T01:10:19.160Z,3.80
2019-03-11T01:15:13.153Z,3.75
2019-03-11T01:20:08.915Z,3.67
2019-03-11T01:25:05.161Z,3.72
2019-03-11T01:29:59.131Z,3.72
2019-03-11T01:34:52.972Z,3.75
2019-03-11T01:39:46.840Z,3.82
2019-03-11T01:44:40.684Z,3.85
2019-03-11T01:49:34.538Z,3.96
2019-03-11T01:54:28.413Z,3.92
2019-03-11T01:59:22.244Z,3.95
2019-03-11T02:04:16.095Z,3.96
2019-03-11T02:09:10.878Z,3.91
2019-03-11T02:14:04.935Z,3.92
2019-03-11T02:18:58.793Z,3.91
2019-03-11T02:23:52.669Z,3.94
2019-03-11T02:28:46.535Z,3.91
2019-03-11T02:33:40.404Z,3.88
2019-03-11T02:38:34.265Z,3.91
2019-03-11T02:43:28.132Z,4.02
2019-03-11T02:48:21.987Z,4.06
2019-03-11T02:53:15.830Z,4.08
2019-03-11T02:58:09.685Z,4.10
2019-03-11T03:03:11.292Z,4.15
2019-03-11T03:08:05.210Z,4.23
2019-03-11T03:12:59.133Z,4.11
2019-03-11T03:17:53.000Z,4.16
2019-03-11T03:22:46.932Z,4.20
2019-03-11T03:27:40.935Z,4.21
2019-03-11T03:32:34.839Z,4.15
2019-03-11T03:37:28.690Z,3.99
2019-03-11T03:42:22.649Z,3.75
2019-03-11T03:47:16.493Z,3.57
2019-03-11T03:52:10.412Z,3.48
2019-03-11T03:57:04.491Z,3.37
2019-03-11T04:01:58.442Z,3.56
2019-03-11T04:06:52.433Z,3.70
2019-03-11T04:11:46.428Z,3.80
2019-03-11T04:16:40.293Z,3.84
2019-03-11T04:21:34.364Z,3.71
2019-03-11T04:26:28.296Z,3.53
2019-03-11T04:31:22.148Z,3.40
2019-03-11T04:36:16.029Z,3.40
2019-03-11T04:41:09.964Z,3.38
2019-03-11T04:46:04.012Z,3.50
2019-03-11T04:50:57.848Z,3.49
2019-03-11T04:55:51.679Z,3.58
2019-03-11T05:00:45.525Z,3.60
2019-03-11T05:05:39.381Z,3.42
2019-03-11T05:10:33.266Z,2.87
2019-03-11T05:15:27.337Z,2.65
2019-03-11T05:20:21.484Z,2.62
2019-03-11T05:25:15.331Z,2.65
2019-03-11T05:30:16.781Z,2.76
2019-03-11T05:35:10.943Z,2.94
2019-03-11T05:40:16.551Z,2.92
2019-03-11T05:45:15.494Z,3.09
2019-03-11T05:50:12.442Z,3.21
2019-03-11T05:55:07.718Z,3.25
2019-03-11T06:00:03.364Z,3.14
2019-03-11T06:04:57.217Z,2.91
2019-03-11T06:09:51.089Z,2.77
2019-03-11T06:14:44.955Z,2.61
2019-03-11T06:19:38.910Z,2.57
2019-03-11T06:24:32.767Z,2.53
2019-03-11T06:29:30.779Z,2.44
2019-03-11T06:34:22.399Z,2.50
2019-03-11T06:39:16.359Z,2.65
2019-03-11T06:44:10.234Z,2.76
2019-03-11T06:49:04.071Z,2.84
2019-03-11T06:53:57.929Z,2.83
2019-03-11T06:58:51.770Z,2.56
2019-03-11T07:03:45.793Z,2.05
2019-03-11T07:08:39.693Z,1.95
2019-03-11T07:13:33.658Z,2.06
2019-03-11T07:18:27.505Z,2.21
2019-03-11T07:23:21.456Z,2.49
2019-03-11T07:28:15.296Z,2.50
2019-03-11T07:33:09.145Z,2.62
2019-03-11T07:38:03.102Z,2.75
2019-03-11T07:42:56.963Z,2.99
2019-03-11T07:47:50.946Z,3.20
2019-03-11T07:52:44.836Z,3.34
2019-03-11T07:57:38.735Z,3.08
2019-03-11T08:02:32.655Z,3.29
2019-03-11T08:07:27.566Z,3.48
2019-03-11T08:12:21.785Z,3.50
2019-03-11T08:17:15.621Z,3.51
2019-03-11T08:22:09.482Z,3.53
2019-03-11T08:27:03.365Z,3.47
2019-03-11T08:31:57.256Z,3.48
2019-03-11T08:36:51.228Z,3.51
2019-03-11T08:41:45.292Z,3.48
2019-03-11T08:46:39.138Z,3.63
2019-03-11T08:51:33.097Z,3.93
2019-03-11T08:56:27.050Z,4.19
2019-03-11T09:01:20.912Z,4.15
2019-03-11T09:06:14.771Z,4.33
2019-03-11T09:11:08.679Z,4.36
2019-03-11T09:16:02.969Z,4.66
2019-03-11T09:20:56.844Z,5.00
2019-03-11T09:25:50.701Z,4.83
2019-03-11T09:30:44.550Z,4.70
2019-03-11T09:35:38.403Z,4.25
2019-03-11T09:40:32.320Z,4.68
2019-03-11T09:45:26.294Z,4.80
2019-03-11T09:50:20.159Z,5.38
2019-03-11T09:55:18.688Z,5.40
2019-03-11T10:00:16.371Z,5.85
2019-03-11T10:05:10.536Z,6.50
2019-03-11T10:10:11.281Z,6.26
2019-03-11T10:15:08.942Z,5.51
2019-03-11T10:20:05.908Z,6.08
2019-03-11T10:24:59.791Z,6.62
2019-03-11T10:29:53.697Z,6.92
2019-03-11T10:34:47.569Z,7.49
2019-03-11T10:39:41.440Z,7.60
2019-03-11T10:44:35.298Z,8.37
2019-03-11T10:49:29.149Z,10.08
2019-03-11T10:54:23.034Z,10.00
2019-03-11T10:59:16.881Z,11.27
2019-03-11T11:04:10.763Z,13.62
2019-03-11T11:09:05.263Z,11.47
2019-03-11T11:13:59.140Z,13.31
2019-03-11T11:18:53.019Z,12.94
2019-03-11T11:23:46.853Z,12.47
2019-03-11T11:28:40.715Z,12.38
2019-03-11T11:33:34.612Z,10.27
2019-03-11T11:38:28.469Z,10.13
2019-03-11T11:43:22.449Z,9.55
2019-03-11T11:48:16.582Z,12.50
2019-03-11T11:53:10.539Z,12.85
2019-03-11T11:58:04.441Z,13.30
2019-03-11T12:02:58.405Z,14.68
2019-03-11T12:07:52.547Z,12.31
2019-03-11T12:12:46.602Z,12.76
2019-03-11T12:17:40.679Z,16.29
2019-03-11T12:22:34.645Z,15.28
2019-03-11T12:27:28.644Z,15.99
2019-03-11T12:32:22.501Z,12.70
2019-03-11T12:37:16.364Z,13.51
2019-03-11T12:42:10.235Z,14.64
2019-03-11T12:47:04.118Z,16.30
2019-03-11T12:51:58.116Z,16.30
2019-03-11T12:56:52.124Z,11.32
2019-03-11T13:01:45.961Z,10.88
2019-03-11T13:06:39.831Z,10.44
2019-03-11T13:11:33.825Z,11.45
2019-03-11T13:16:27.699Z,9.56
2019-03-11T13:21:23.970Z,8.47
2019-03-11T13:26:18.045Z,8.42
2019-03-11T13:31:11.937Z,9.76
2019-03-11T13:36:06.808Z,13.95
2019-03-11T13:41:00.641Z,11.16
2019-03-11T13:45:54.796Z,9.62
2019-03-11T13:50:48.649Z,11.07
2019-03-11T13:55:42.505Z,10.07
2019-03-11T14:00:36.385Z,13.76
2019-03-11T14:05:30.261Z,12.03
2019-03-11T14:10:24.292Z,10.27
2019-03-11T14:15:20.749Z,9.81
2019-03-11T14:20:14.806Z,8.79
2019-03-11T14:25:09.448Z,8.40
2019-03-11T14:30:07.155Z,9.39
2019-03-11T14:35:01.156Z,12.78
2019-03-11T14:39:55.005Z,14.79
2019-03-11T14:44:49.010Z,10.36
2019-03-11T14:49:42.875Z,13.84
2019-03-11T14:54:36.746Z,15.17
2019-03-11T14:59:30.747Z,10.97
2019-03-11T15:04:24.610Z,10.10
2019-03-11T15:09:18.509Z,10.13
2019-03-11T15:14:12.393Z,8.74
2019-03-11T15:19:06.252Z,8.76
2019-03-11T15:24:00.105Z,8.93
2019-03-11T15:28:54.092Z,8.94
2019-03-11T15:33:49.487Z,9.26
2019-03-11T15:38:43.466Z,8.78
2019-03-11T15:43:37.336Z,8.50
2019-03-11T15:48:31.209Z,8.50
2019-03-11T15:53:25.177Z,8.50
2019-03-11T15:58:19.051Z,10.46
2019-03-11T16:03:13.030Z,20.26
2019-03-11T16:08:07.039Z,18.43
2019-03-11T16:13:01.053Z,16.65
2019-03-11T16:17:55.010Z,11.73
2019-03-11T16:22:49.071Z,11.10
2019-03-11T16:27:43.033Z,9.54
2019-03-11T16:32:37.764Z,8.81
2019-03-11T16:37:31.806Z,8.86
2019-03-11T16:42:25.763Z,8.96
2019-03-11T16:47:19.616Z,9.17
2019-03-11T16:52:13.639Z,8.85
2019-03-11T16:57:07.749Z,7.96
2019-03-11T17:02:01.857Z,7.66
2019-03-11T17:06:55.737Z,7.66
2019-03-11T17:11:49.771Z,7.73
2019-03-11T17:16:43.887Z,7.65
2019-03-11T17:21:37.839Z,7.59
2019-03-11T17:26:31.684Z,7.33
2019-03-11T17:31:25.640Z,7.24
2019-03-11T17:36:19.900Z,7.26
2019-03-11T17:41:13.869Z,7.22
2019-03-11T17:46:07.729Z,7.14
2019-03-11T17:51:01.726Z,7.09
2019-03-11T17:55:55.592Z,7.15
2019-03-11T18:00:55.592Z,7.13
2019-03-11T18:05:46.556Z,7.19
2019-03-11T18:10:40.576Z,7.16
2019-03-11T18:15:34.634Z,7.12
2019-03-11T18:20:28.622Z,7.11
2019-03-11T18:25:22.815Z,6.96
2019-03-11T18:30:22.772Z,6.93
2019-03-11T18:35:16.774Z,6.88
2019-03-11T18:40:12.771Z,6.86
2019-03-11T18:45:11.884Z,6.78
2019-03-11T18:50:08.871Z,6.83
2019-03-11T18:55:06.517Z,6.84
2019-03-11T19:00:00.548Z,6.78
2019-03-11T19:04:54.450Z,6.76
2019-03-11T19:09:48.449Z,6.84
2019-03-11T19:14:42.368Z,6.73
2019-03-11T19:19:45.735Z,6.57
2019-03-11T19:24:32.358Z,6.62
2019-03-11T19:29:26.232Z,6.56
2019-03-11T19:34:20.319Z,6.61
2019-03-11T19:39:16.063Z,6.63
2019-03-11T19:44:09.944Z,6.57
2019-03-11T19:49:04.007Z,6.62
2019-03-11T19:53:57.979Z,6.59
2019-03-11T19:58:51.839Z,6.57
2019-03-11T20:03:45.979Z,6.56
2019-03-11T20:08:40.193Z,6.61
2019-03-11T20:13:36.514Z,6.51
2019-03-11T20:18:30.180Z,6.37
2019-03-11T20:23:24.212Z,6.27
2019-03-11T20:28:18.150Z,6.20
2019-03-11T20:33:12.036Z,6.13
2019-03-11T20:38:06.134Z,5.97
2019-03-11T20:43:00.115Z,5.95
2019-03-11T20:47:54.076Z,5.96
2019-03-11T20:52:48.352Z,5.94
2019-03-11T20:57:42.432Z,5.92
2019-03-11T21:02:36.469Z,5.71
2019-03-11T21:07:30.370Z,5.54
2019-03-11T21:12:24.510Z,5.46
2019-03-11T21:17:25.989Z,5.36
2019-03-11T21:22:14.336Z,5.30
2019-03-11T21:27:08.278Z,5.25
2019-03-11T21:32:02.247Z,5.16
2019-03-11T21:36:56.307Z,5.11
2019-03-11T21:41:50.294Z,5.01
2019-03-11T21:46:44.419Z,4.87
2019-03-11T21:51:38.375Z,4.73
2019-03-11T21:56:32.418Z,4.73
2019-03-11T22:01:26.468Z,4.58
2019-03-11T22:06:20.659Z,4.48
2019-03-11T22:11:14.549Z,4.38
2019-03-11T22:16:08.422Z,4.25
2019-03-11T22:21:02.576Z,4.15
2019-03-11T22:25:56.741Z,4.13
2019-03-11T22:30:50.600Z,4.09
2019-03-11T22:35:44.457Z,3.99
2019-03-11T22:40:38.331Z,4.02
2019-03-11T22:45:32.193Z,3.90
2019-03-11T22:50:26.072Z,3.93
2019-03-11T22:55:19.979Z,3.89
2019-03-11T23:00:47.811Z,3.78
2019-03-11T23:05:56.896Z,3.66
2019-03-11T23:10:37.586Z,3.43
2019-03-11T23:15:31.528Z,3.37
2019-03-11T23:20:25.380Z,3.31
2019-03-11T23:25:19.348Z,3.28
2019-03-11T23:30:13.688Z,3.15
2019-03-11T23:35:07.650Z,3.13
2019-03-11T23:40:01.919Z,3.01
2019-03-11T23:44:55.792Z,2.89
2019-03-11T23:49:49.662Z,2.76
2019-03-11T23:54:43.511Z,2.67
2019-03-11T23:59:37.358Z,2.69
